createdAt,value
2022-08-24T00:01:22.042Z,4.97
2022-08-24T00:07:43.567Z,12.32
2022-08-24T00:10:18.724Z,6.63
2022-08-24T00:12:53.973Z,5.00
2022-08-24T00:15:24.835Z,5.28
2022-08-24T00:18:12.232Z,4.90
2022-08-24T00:20:45.256Z,5.45
2022-08-24T00:26:40.716Z,5.28
2022-08-24T00:29:11.504Z,4.78
2022-08-24T00:31:49.484Z,4.80
2022-08-24T00:35:25.570Z,5.10
2022-08-24T00:38:44.225Z,5.40
2022-08-24T00:46:17.476Z,5.30
2022-08-24T00:48:52.864Z,5.05
2022-08-24T00:51:28.974Z,5.00
2022-08-24T00:57:51.459Z,5.25
2022-08-24T01:04:08.509Z,4.90
2022-08-24T01:22:07.122Z,5.15
2022-08-24T01:28:04.346Z,5.47
2022-08-24T01:30:48.321Z,5.32
2022-08-24T01:33:27.541Z,4.80
2022-08-24T01:36:02.895Z,5.25
2022-08-24T01:38:39.534Z,5.40
2022-08-24T01:41:09.657Z,5.55
2022-08-24T01:43:46.772Z,5.40
2022-08-24T01:46:14.907Z,5.22
2022-08-24T01:52:07.697Z,5.43
2022-08-24T01:55:06.658Z,5.18
2022-08-24T01:58:11.539Z,5.57
2022-08-24T02:00:50.183Z,5.50
2022-08-24T02:03:30.259Z,5.03
2022-08-24T02:09:32.893Z,5.20
2022-08-24T02:12:11.662Z,5.60
2022-08-24T02:15:50.987Z,5.75
2022-08-24T02:18:22.779Z,5.65
2022-08-24T02:23:51.635Z,5.18
2022-08-24T02:26:20.868Z,5.75
2022-08-24T02:28:49.635Z,5.30
2022-08-24T02:34:50.532Z,5.45
2022-08-24T02:37:23.772Z,5.63
2022-08-24T02:39:53.783Z,5.93
2022-08-24T02:42:25.663Z,6.20
2022-08-24T02:44:56.394Z,5.15
2022-08-24T02:47:38.243Z,5.65
2022-08-24T02:50:18.986Z,5.22
2022-08-24T02:52:47.764Z,5.32
2022-08-24T02:55:20.301Z,5.80
2022-08-24T02:57:52.131Z,5.65
2022-08-24T03:00:22.397Z,5.30
2022-08-24T03:02:54.877Z,5.40
2022-08-24T03:05:27.034Z,5.88
2022-08-24T03:07:55.834Z,6.05
2022-08-24T03:10:24.870Z,5.25
2022-08-24T03:12:58.804Z,5.63
2022-08-24T03:15:30.750Z,5.68
2022-08-24T03:17:59.846Z,5.60
2022-08-24T03:20:30.729Z,6.25
2022-08-24T03:23:02.982Z,5.68
2022-08-24T03:25:31.473Z,6.57
2022-08-24T03:27:59.895Z,6.47
2022-08-24T03:30:28.426Z,6.47
2022-08-24T03:32:57.887Z,6.50
2022-08-24T03:35:31.469Z,6.25
2022-08-24T03:38:00.941Z,6.13
2022-08-24T03:40:29.937Z,5.80
2022-08-24T03:42:58.869Z,5.97
2022-08-24T03:45:28.830Z,6.13
2022-08-24T03:48:00.528Z,6.20
2022-08-24T03:50:29.971Z,5.85
2022-08-24T03:52:59.084Z,6.30
2022-08-24T03:55:28.727Z,6.25
2022-08-24T03:57:57.904Z,6.30
2022-08-24T04:00:27.492Z,5.85
2022-08-24T04:02:59.783Z,6.03
2022-08-24T04:05:35.420Z,6.32
2022-08-24T04:08:04.510Z,6.80
2022-08-24T04:10:34.085Z,6.93
2022-08-24T04:13:04.029Z,6.70
2022-08-24T04:15:33.304Z,6.30
2022-08-24T04:18:05.898Z,6.78
2022-08-24T04:20:39.148Z,7.50
2022-08-24T04:23:13.241Z,6.40
2022-08-24T04:25:43.754Z,7.00
2022-08-24T04:28:13.939Z,8.10
2022-08-24T04:30:43.358Z,7.28
2022-08-24T04:33:16.337Z,7.38
2022-08-24T04:35:49.035Z,7.45
2022-08-24T04:38:19.956Z,7.00
2022-08-24T04:41:06.429Z,7.00
2022-08-24T04:43:35.873Z,6.95
2022-08-24T04:46:06.790Z,6.55
2022-08-24T04:48:38.201Z,6.57
2022-08-24T04:51:13.845Z,6.13
2022-08-24T04:53:46.111Z,6.20
2022-08-24T04:56:16.894Z,6.93
2022-08-24T04:58:50.491Z,5.95
2022-08-24T05:01:21.918Z,6.60
2022-08-24T05:03:54.360Z,6.90
2022-08-24T05:06:27.102Z,6.50
2022-08-24T05:08:56.935Z,6.70
2022-08-24T05:11:27.519Z,6.70
2022-08-24T05:13:57.923Z,7.10
2022-08-24T05:16:27.940Z,6.78
2022-08-24T05:18:57.829Z,7.47
2022-08-24T05:21:31.841Z,7.30
2022-08-24T05:24:04.731Z,6.75
2022-08-24T05:26:33.946Z,7.53
2022-08-24T05:29:03.949Z,6.65
2022-08-24T05:31:45.841Z,7.00
2022-08-24T05:34:19.208Z,7.03
2022-08-24T05:36:49.798Z,7.82
2022-08-24T05:39:40.927Z,7.10
2022-08-24T05:42:13.631Z,7.28
2022-08-24T05:44:52.477Z,7.82
2022-08-24T05:47:23.829Z,7.28
2022-08-24T05:49:53.771Z,7.22
2022-08-24T05:52:23.883Z,7.05
2022-08-24T05:54:54.938Z,7.70
2022-08-24T05:57:24.876Z,8.60
2022-08-24T06:00:09.729Z,9.23
2022-08-24T06:02:44.473Z,8.15
2022-08-24T06:05:14.104Z,9.48
2022-08-24T06:07:44.970Z,8.85
2022-08-24T06:10:35.975Z,7.47
2022-08-24T06:13:06.376Z,6.78
2022-08-24T06:15:45.654Z,7.40
2022-08-24T06:18:25.301Z,7.13
2022-08-24T06:20:57.240Z,9.63
2022-08-24T06:23:28.220Z,12.10
2022-08-24T06:26:23.479Z,10.38
2022-08-24T06:28:56.375Z,8.18
2022-08-24T06:31:26.051Z,16.85
2022-08-24T06:34:02.543Z,15.57
2022-08-24T06:36:31.983Z,13.98
2022-08-24T06:39:01.973Z,11.45
2022-08-24T06:41:30.853Z,8.05
2022-08-24T06:44:00.256Z,8.02
2022-08-24T06:46:45.011Z,8.18
2022-08-24T06:49:13.571Z,8.20
2022-08-24T06:51:41.731Z,7.30
2022-08-24T06:54:36.541Z,8.48
2022-08-24T06:57:04.975Z,7.00
2022-08-24T06:59:33.972Z,7.13
2022-08-24T07:02:02.933Z,7.13
2022-08-24T07:04:32.569Z,7.05
2022-08-24T07:07:20.009Z,7.03
2022-08-24T07:09:50.198Z,7.35
2022-08-24T07:12:18.273Z,7.20
2022-08-24T07:14:46.925Z,7.68
2022-08-24T07:17:19.211Z,7.32
2022-08-24T07:19:48.913Z,7.00
2022-08-24T07:22:33.975Z,8.40
2022-08-24T07:25:04.018Z,8.20
2022-08-24T07:27:36.077Z,8.20
2022-08-24T07:30:25.807Z,8.43
2022-08-24T07:33:00.253Z,7.85
2022-08-24T07:35:31.256Z,8.35
2022-08-24T07:38:02.157Z,8.77
2022-08-24T07:40:36.444Z,8.05
2022-08-24T07:43:18.003Z,7.75
2022-08-24T07:45:46.040Z,7.57
2022-08-24T07:48:15.026Z,7.97
2022-08-24T07:50:47.023Z,10.63
2022-08-24T07:53:20.764Z,12.82
2022-08-24T07:55:57.992Z,9.68
2022-08-24T07:58:27.050Z,8.18
2022-08-24T08:00:59.075Z,7.80
2022-08-24T08:03:33.477Z,7.47
2022-08-24T08:06:11.175Z,7.38
2022-08-24T08:08:45.877Z,7.85
2022-08-24T08:11:16.276Z,7.53
2022-08-24T08:13:44.909Z,6.85
2022-08-24T08:16:14.055Z,7.07
2022-08-24T08:18:43.325Z,8.02
2022-08-24T08:21:31.209Z,7.53
2022-08-24T08:24:20.450Z,6.80
2022-08-24T08:26:59.374Z,7.55
2022-08-24T08:29:36.389Z,7.30
2022-08-24T08:32:09.400Z,7.38
2022-08-24T08:34:37.812Z,7.28
2022-08-24T08:37:06.518Z,7.75
2022-08-24T08:39:35.021Z,7.47
2022-08-24T08:42:34.097Z,6.38
2022-08-24T08:45:19.362Z,7.53
2022-08-24T08:48:33.092Z,7.50
2022-08-24T08:51:50.032Z,7.32
2022-08-24T08:54:46.342Z,7.65
2022-08-24T08:57:34.049Z,7.18
2022-08-24T09:00:15.560Z,8.65
2022-08-24T09:03:14.095Z,11.48
2022-08-24T09:06:26.754Z,9.30
2022-08-24T09:09:19.042Z,7.93
2022-08-24T09:11:58.957Z,8.32
2022-08-24T09:14:49.287Z,8.95
2022-08-24T09:17:35.976Z,8.05
2022-08-24T09:20:21.259Z,8.68
2022-08-24T09:22:55.975Z,8.20
2022-08-24T09:25:28.434Z,8.15
2022-08-24T09:28:17.159Z,8.32
2022-08-24T09:31:22.766Z,9.30
2022-08-24T09:34:08.525Z,7.18
2022-08-24T09:36:49.067Z,7.88
2022-08-24T09:39:47.120Z,8.02
2022-08-24T09:43:06.281Z,7.25
2022-08-24T09:46:14.018Z,7.60
2022-08-24T09:49:13.614Z,8.15
2022-08-24T09:52:19.588Z,8.05
2022-08-24T09:55:14.493Z,8.45
2022-08-24T09:58:08.101Z,8.40
2022-08-24T10:00:46.136Z,7.13
2022-08-24T10:03:42.113Z,7.47
2022-08-24T10:06:25.123Z,6.97
2022-08-24T10:09:13.005Z,6.95
2022-08-24T10:11:53.161Z,8.45
2022-08-24T10:14:38.179Z,8.15
2022-08-24T10:17:14.103Z,7.72
2022-08-24T10:20:00.113Z,8.55
2022-08-24T10:22:54.141Z,8.27
2022-08-24T10:25:34.837Z,8.40
2022-08-24T10:28:26.201Z,7.28
2022-08-24T10:31:02.786Z,7.45
2022-08-24T10:33:39.122Z,7.40
2022-08-24T10:36:29.135Z,7.50
2022-08-24T10:39:27.863Z,7.90
2022-08-24T10:42:37.249Z,6.95
2022-08-24T10:45:22.193Z,7.95
2022-08-24T10:48:12.742Z,7.85
2022-08-24T10:50:55.002Z,8.43
2022-08-24T10:53:29.144Z,7.60
2022-08-24T10:56:08.021Z,7.60
2022-08-24T10:58:57.138Z,7.53
2022-08-24T11:01:32.205Z,7.13
2022-08-24T11:04:04.708Z,7.88
2022-08-24T11:06:36.369Z,7.28
2022-08-24T11:09:10.182Z,7.43
2022-08-24T11:11:40.903Z,7.00
2022-08-24T11:14:25.147Z,7.07
2022-08-24T11:16:57.704Z,8.63
2022-08-24T11:19:35.169Z,9.10
2022-08-24T11:22:06.401Z,7.95
2022-08-24T11:24:46.148Z,8.27
2022-08-24T11:27:26.178Z,8.02
2022-08-24T11:30:01.098Z,7.38
2022-08-24T11:32:39.340Z,6.97
2022-08-24T11:35:17.054Z,8.45
2022-08-24T11:37:46.179Z,8.55
2022-08-24T11:40:18.301Z,8.75
2022-08-24T11:42:57.321Z,8.63
2022-08-24T11:45:34.248Z,7.63
2022-08-24T11:48:19.530Z,8.38
2022-08-24T11:50:58.205Z,7.75
2022-08-24T11:56:25.597Z,8.23
2022-08-24T11:59:01.188Z,8.70
2022-08-24T12:01:35.372Z,9.02
2022-08-24T12:04:19.216Z,7.97
2022-08-24T12:06:57.876Z,7.70
2022-08-24T12:09:40.399Z,8.30
2022-08-24T12:12:18.103Z,7.97
2022-08-24T12:14:54.936Z,6.95
2022-08-24T12:17:39.466Z,6.88
2022-08-24T12:20:27.390Z,8.85
2022-08-24T12:23:00.089Z,7.97
2022-08-24T12:25:58.421Z,7.93
2022-08-24T12:28:40.701Z,7.80
2022-08-24T12:31:23.182Z,8.20
2022-08-24T12:33:55.199Z,8.55
2022-08-24T12:36:30.543Z,9.68
2022-08-24T12:39:10.418Z,8.95
2022-08-24T12:41:54.433Z,9.13
2022-08-24T12:44:30.259Z,7.53
2022-08-24T12:46:59.184Z,8.40
2022-08-24T12:49:33.741Z,8.85
2022-08-24T12:52:15.193Z,9.27
2022-08-24T12:55:23.581Z,10.13
2022-08-24T12:58:30.988Z,8.63
2022-08-24T13:01:05.321Z,8.07
2022-08-24T13:03:38.278Z,8.70
2022-08-24T13:06:10.247Z,8.30
2022-08-24T13:08:42.202Z,8.85
2022-08-24T13:11:16.117Z,8.05
2022-08-24T13:13:49.242Z,8.40
2022-08-24T13:16:47.551Z,7.80
2022-08-24T13:19:59.487Z,8.07
2022-08-24T13:22:49.844Z,9.73
2022-08-24T13:25:53.233Z,7.68
2022-08-24T13:28:49.240Z,8.05
2022-08-24T13:31:33.322Z,7.70
2022-08-24T13:34:40.501Z,7.95
2022-08-24T13:37:16.141Z,7.57
2022-08-24T13:40:15.319Z,8.68
2022-08-24T13:43:11.263Z,8.93
2022-08-24T13:45:44.156Z,8.10
2022-08-24T13:48:24.206Z,7.97
2022-08-24T13:51:25.969Z,8.57
2022-08-24T13:54:08.575Z,8.65
2022-08-24T13:57:06.606Z,8.75
2022-08-24T14:00:01.223Z,9.32
2022-08-24T14:02:40.250Z,7.40
2022-08-24T14:05:19.235Z,8.98
2022-08-24T14:08:00.367Z,8.73
2022-08-24T14:10:43.285Z,8.35
2022-08-24T14:13:27.257Z,8.88
2022-08-24T14:16:21.088Z,9.10
2022-08-24T14:19:01.934Z,8.50
2022-08-24T14:21:41.385Z,8.02
2022-08-24T14:24:14.356Z,8.95
2022-08-24T14:27:05.217Z,8.63
2022-08-24T14:29:45.271Z,8.73
2022-08-24T14:32:48.290Z,7.82
2022-08-24T14:35:39.359Z,9.10
2022-08-24T14:38:29.325Z,9.85
2022-08-24T14:41:17.948Z,8.43
2022-08-24T14:44:06.856Z,8.77
2022-08-24T14:46:43.266Z,9.52
2022-08-24T14:49:19.260Z,9.25
2022-08-24T14:52:01.195Z,9.43
2022-08-24T14:54:42.297Z,10.30
2022-08-24T14:57:27.687Z,9.25
2022-08-24T15:00:10.976Z,9.73
2022-08-24T15:03:09.472Z,8.60
2022-08-24T15:05:43.486Z,9.27
2022-08-24T15:08:18.187Z,8.60
2022-08-24T15:10:50.224Z,10.40
2022-08-24T15:13:28.631Z,11.63
2022-08-24T15:16:02.726Z,10.93
2022-08-24T15:18:40.078Z,9.73
2022-08-24T15:21:19.246Z,11.20
2022-08-24T15:24:01.179Z,10.43
2022-08-24T15:26:46.844Z,10.48
2022-08-24T15:29:23.324Z,9.95
2022-08-24T15:32:02.351Z,8.80
2022-08-24T15:34:42.809Z,9.10
2022-08-24T15:37:12.218Z,10.00
2022-08-24T15:39:40.933Z,8.80
2022-08-24T15:42:13.224Z,7.90
2022-08-24T15:44:47.492Z,10.65
2022-08-24T15:47:24.400Z,9.93
2022-08-24T15:49:55.500Z,15.00
2022-08-24T15:52:51.477Z,11.68
2022-08-24T15:55:39.389Z,10.02
2022-08-24T15:58:24.249Z,9.90
2022-08-24T16:01:11.539Z,10.48
2022-08-24T16:03:51.433Z,9.55
2022-08-24T16:06:25.980Z,9.35
2022-08-24T16:09:01.425Z,8.75
2022-08-24T16:11:37.375Z,8.73
2022-08-24T16:14:14.467Z,8.23
2022-08-24T16:16:47.288Z,8.60
2022-08-24T16:19:24.263Z,11.05
2022-08-24T16:21:58.539Z,9.88
2022-08-24T16:24:34.021Z,9.00
2022-08-24T16:27:07.484Z,9.07
2022-08-24T16:29:51.093Z,10.75
2022-08-24T16:32:33.724Z,9.95
2022-08-24T16:35:23.615Z,11.65
2022-08-24T16:37:54.745Z,10.18
2022-08-24T16:40:30.334Z,10.35
2022-08-24T16:42:59.406Z,8.57
2022-08-24T16:45:27.441Z,8.25
2022-08-24T16:47:57.383Z,9.98
2022-08-24T16:50:27.254Z,8.98
2022-08-24T16:52:59.743Z,8.80
2022-08-24T16:55:29.399Z,9.20
2022-08-24T16:57:58.063Z,9.80
2022-08-24T17:00:26.041Z,10.07
2022-08-24T17:02:57.494Z,10.63
2022-08-24T17:05:25.522Z,9.27
2022-08-24T17:07:54.367Z,10.65
2022-08-24T17:10:23.701Z,10.10
2022-08-24T17:12:52.336Z,9.90
2022-08-24T17:15:23.707Z,9.82
2022-08-24T17:18:01.473Z,10.48
2022-08-24T17:20:54.623Z,9.20
2022-08-24T17:23:27.381Z,10.48
2022-08-24T17:25:58.425Z,9.57
2022-08-24T17:28:27.547Z,10.02
2022-08-24T17:30:55.649Z,9.27
2022-08-24T17:33:26.630Z,9.80
2022-08-24T17:35:57.329Z,10.02
2022-08-24T17:38:26.536Z,9.40
2022-08-24T17:40:55.811Z,10.55
2022-08-24T17:43:24.864Z,9.43
2022-08-24T17:45:53.521Z,9.50
2022-08-24T17:48:27.197Z,9.68
2022-08-24T17:50:57.046Z,9.93
2022-08-24T17:53:25.201Z,8.65
2022-08-24T17:55:54.505Z,9.68
2022-08-24T17:58:23.535Z,9.98
2022-08-24T18:00:51.703Z,9.60
2022-08-24T18:03:22.831Z,9.02
2022-08-24T18:05:52.759Z,9.23
2022-08-24T18:08:21.478Z,10.02
2022-08-24T18:10:49.924Z,8.70
2022-08-24T18:13:20.630Z,10.85
2022-08-24T18:15:51.088Z,9.75
2022-08-24T18:18:19.376Z,10.02
2022-08-24T18:20:47.387Z,9.73
2022-08-24T18:23:17.496Z,10.10
2022-08-24T18:25:51.274Z,8.82
2022-08-24T18:28:23.611Z,10.18
2022-08-24T18:30:55.287Z,10.02
2022-08-24T18:33:27.609Z,10.35
2022-08-24T18:35:56.096Z,10.50
2022-08-24T18:38:34.442Z,9.75
2022-08-24T18:41:03.079Z,10.45
2022-08-24T18:43:31.316Z,10.10
2022-08-24T18:45:59.470Z,9.80
2022-08-24T18:48:27.618Z,9.88
2022-08-24T18:50:58.242Z,10.18
2022-08-24T18:53:29.211Z,18.40
2022-08-24T18:56:03.140Z,10.93
2022-08-24T18:58:36.890Z,10.30
2022-08-24T19:01:05.807Z,10.43
2022-08-24T19:03:35.028Z,10.20
2022-08-24T19:06:03.146Z,10.18
2022-08-24T19:08:37.531Z,10.15
2022-08-24T19:11:07.282Z,10.20
2022-08-24T19:13:37.480Z,10.45
2022-08-24T19:16:06.023Z,10.15
2022-08-24T19:18:36.675Z,9.57
2022-08-24T19:21:06.596Z,9.60
2022-08-24T19:23:37.354Z,10.57
2022-08-24T19:26:07.428Z,10.20
2022-08-24T19:28:35.520Z,8.88
2022-08-24T19:31:08.433Z,9.57
2022-08-24T19:33:39.626Z,9.80
2022-08-24T19:36:09.391Z,9.65
2022-08-24T19:38:37.443Z,9.55
2022-08-24T19:41:12.580Z,9.60
2022-08-24T19:43:56.136Z,9.30
2022-08-24T19:46:24.800Z,8.88
2022-08-24T19:48:57.563Z,8.60
2022-08-24T19:51:26.774Z,8.68
2022-08-24T19:53:55.003Z,8.40
2022-08-24T19:56:24.813Z,9.02
2022-08-24T19:58:59.074Z,8.73
2022-08-24T20:01:29.797Z,7.28
2022-08-24T20:03:57.939Z,6.88
2022-08-24T20:06:27.197Z,5.93
2022-08-24T20:08:55.575Z,5.50
2022-08-24T20:11:25.498Z,5.18
2022-08-24T20:13:54.454Z,5.72
2022-08-24T20:16:24.544Z,5.43
2022-08-24T20:18:53.555Z,5.53
2022-08-24T20:21:26.136Z,5.78
2022-08-24T20:23:56.545Z,5.25
2022-08-24T20:26:26.596Z,4.80
2022-08-24T20:28:58.861Z,4.22
2022-08-24T20:31:29.303Z,4.18
2022-08-24T20:33:58.318Z,4.32
2022-08-24T20:36:29.175Z,3.80
2022-08-24T20:39:01.043Z,4.93
2022-08-24T20:41:30.965Z,4.10
2022-08-24T20:44:01.643Z,4.82
2022-08-24T20:46:30.651Z,4.40
2022-08-24T20:49:01.595Z,4.38
2022-08-24T20:51:32.562Z,4.72
2022-08-24T20:54:06.452Z,5.20
2022-08-24T20:56:39.615Z,4.50
2022-08-24T20:59:10.789Z,4.82
2022-08-24T21:01:43.473Z,5.20
2022-08-24T21:04:12.491Z,5.18
2022-08-24T21:06:45.242Z,5.65
2022-08-24T21:09:14.722Z,6.15
2022-08-24T21:11:46.339Z,6.10
2022-08-24T21:14:16.637Z,5.75
2022-08-24T21:16:45.463Z,6.47
2022-08-24T21:19:17.801Z,5.28
2022-08-24T21:21:47.395Z,5.85
2022-08-24T21:24:18.449Z,5.07
2022-08-24T21:26:49.205Z,5.38
2022-08-24T21:29:17.547Z,5.53
2022-08-24T21:32:05.913Z,6.47
2022-08-24T21:34:42.789Z,6.32
2022-08-24T21:37:13.532Z,5.65
2022-08-24T21:39:42.577Z,4.63
2022-08-24T21:42:11.983Z,4.95
2022-08-24T21:44:41.616Z,5.65
2022-08-24T21:47:09.698Z,4.32
2022-08-24T21:49:41.275Z,5.40
2022-08-24T21:52:11.018Z,4.70
2022-08-24T21:54:39.641Z,4.47
2022-08-24T21:57:08.338Z,3.90
2022-08-24T21:59:40.385Z,4.43
2022-08-24T22:02:08.867Z,4.30
2022-08-24T22:04:42.672Z,3.10
2022-08-24T22:07:12.900Z,3.70
2022-08-24T22:09:42.382Z,3.30
2022-08-24T22:12:12.515Z,3.55
2022-08-24T22:14:42.688Z,4.00
2022-08-24T22:17:11.640Z,3.13
2022-08-24T22:19:39.743Z,4.22
2022-08-24T22:22:08.593Z,3.88
2022-08-24T22:24:40.601Z,3.38
2022-08-24T22:27:09.617Z,3.50
2022-08-24T22:29:37.586Z,3.70
2022-08-24T22:32:11.336Z,3.08
2022-08-24T22:34:42.608Z,2.97
2022-08-24T22:37:11.520Z,3.33
2022-08-24T22:39:41.111Z,3.65
2022-08-24T22:42:11.172Z,3.10
2022-08-24T22:45:03.575Z,3.10
2022-08-24T22:47:38.314Z,2.75
2022-08-24T22:50:07.907Z,2.70
2022-08-24T22:52:39.259Z,4.45
2022-08-24T22:58:36.225Z,3.17
2022-08-24T23:01:06.052Z,3.08
2022-08-24T23:03:37.692Z,3.13
2022-08-24T23:06:06.618Z,3.00
2022-08-24T23:08:35.653Z,2.92
2022-08-24T23:11:05.593Z,3.15
2022-08-24T23:13:38.259Z,2.78
2022-08-24T23:16:07.145Z,2.85
2022-08-24T23:18:55.184Z,2.65
2022-08-24T23:21:23.353Z,2.55
2022-08-24T23:23:52.759Z,2.78
2022-08-24T23:26:20.909Z,3.08
2022-08-24T23:28:50.413Z,2.78
2022-08-24T23:31:21.648Z,3.20
2022-08-24T23:33:51.664Z,2.80
2022-08-24T23:36:22.573Z,3.30
2022-08-24T23:38:52.763Z,3.33
2022-08-24T23:41:27.599Z,2.95
2022-08-24T23:43:57.158Z,3.10
2022-08-24T23:46:25.756Z,3.20
2022-08-24T23:48:57.221Z,2.92
2022-08-24T23:51:26.982Z,2.70
2022-08-24T23:53:57.139Z,3.03
2022-08-24T23:56:28.442Z,2.70
2022-08-24T23:59:03.584Z,3.00
